West Alton, New Hampshire
Current Conditions -  °F | °C
As of 1:35 AM on Wednesday 26 Nov 2014 (Local Time) from KLCI Reporting Station
Clear Clear  
Wind Chill: -1°   Ceiling: Unl
Heat Index:   Visibility: 10mi
Dew Point: -3°   Wind: 9mph
Humidity: 65%   Direction: 230°SW
Pressure: 30.09"   Gusts: NA
Location:  43.4879°N, 71.2495°W
Report Text: KLCI 260635Z AUTO 23008KT 10SM CLR 03/M03 A3009 RMK AO1
Loading
Personal Weather Stations






























Interactive Weather Map New forecast layout! Learn more

10-Day Weather Forecast

Advertisements
Track Severe Weather on mobile